Time;durP1;ratioP1;P1;durP2;ratioP2;P2;SDS_P1;SDS_P2;PMS_P1;PMS_P2;Temp;Humidity;BMP_temperature;BMP_pressure;BME280_temperature;BME280_humidity;BME280_pressure;Samples;Min_cycle;Max_cycle;Signal;HPM_P1;HPM_P2
2023/03/12 00:02:08;;;;;;;7.95;5.47;;;5.70;99.90;;;;;;4977976;28;20022;-91
2023/03/12 00:04:40;;;;;;;8.07;4.78;;;5.10;99.90;;;;;;4977262;28;20023;-92
2023/03/12 00:07:08;;;;;;;21.10;6.13;;;5.60;99.90;;;;;;4976398;28;20027;-91
2023/03/12 00:09:39;;;;;;;13.65;4.97;;;5.70;99.90;;;;;;4976789;28;20060;-91
2023/03/12 00:12:08;;;;;;;7.07;4.20;;;5.80;99.90;;;;;;4976365;28;20035;-90
2023/03/12 00:14:46;;;;;;;10.68;5.00;;;5.00;99.90;;;;;;4975849;28;20027;-91
2023/03/12 00:17:11;;;;;;;8.65;4.38;;;5.50;99.90;;;;;;4976888;28;20027;-89
2023/03/12 00:19:44;;;;;;;11.15;4.95;;;4.90;99.90;;;;;;4976246;28;20114;-90
2023/03/12 00:22:15;;;;;;;9.18;4.50;;;5.10;99.90;;;;;;4976471;28;20057;-90
2023/03/12 00:24:41;;;;;;;13.80;5.35;;;5.80;99.90;;;;;;5000351;23;20074;-89
2023/03/12 00:27:06;;;;;;;13.20;5.10;;;5.80;99.90;;;;;;5011014;23;20084;-91
2023/03/12 00:29:41;;;;;;;7.13;4.50;;;4.40;99.90;;;;;;4995693;28;20027;-90
2023/03/12 00:32:13;;;;;;;9.02;4.18;;;5.40;99.90;;;;;;4995867;28;20053;-90
2023/03/12 00:34:42;;;;;;;6.07;3.90;;;5.70;99.90;;;;;;5001530;23;20054;-90
2023/03/12 00:37:16;;;;;;;10.68;4.88;;;5.60;99.90;;;;;;4993505;28;20030;-91
2023/03/12 00:39:42;;;;;;;8.73;4.15;;;5.70;99.90;;;;;;4996293;28;20467;-91
2023/03/12 00:42:14;;;;;;;13.10;4.57;;;5.70;99.90;;;;;;5018292;23;20145;-89
2023/03/12 00:44:43;;;;;;;5.32;4.18;;;4.70;99.90;;;;;;4995040;28;20022;-90
2023/03/12 00:47:09;;;;;;;8.95;4.15;;;5.80;99.90;;;;;;4995370;28;20096;-90
2023/03/12 00:49:35;;;;;;;10.95;4.55;;;4.80;99.90;;;;;;4994646;28;20026;-89
2023/03/12 00:52:10;;;;;;;17.42;4.68;;;5.60;99.90;;;;;;4995496;28;20057;-90
2023/03/12 00:54:36;;;;;;;6.47;3.67;;;5.80;99.90;;;;;;4995247;28;20022;-89
2023/03/12 00:57:05;;;;;;;7.90;4.82;;;5.30;99.90;;;;;;4995863;28;20030;-90
2023/03/12 00:59:39;;;;;;;9.45;3.75;;;4.80;99.90;;;;;;4996252;28;20026;-89
2023/03/12 01:02:06;;;;;;;12.15;4.50;;;5.10;99.90;;;;;;4994585;28;20026;-90
2023/03/12 01:04:37;;;;;;;14.60;4.55;;;5.50;99.90;;;;;;4998249;28;20049;-90
2023/03/12 01:07:03;;;;;;;10.93;5.03;;;5.20;99.90;;;;;;4998147;28;20030;-91
2023/03/12 01:09:32;;;;;;;13.27;4.78;;;4.80;99.90;;;;;;4994477;28;20022;-90
2023/03/12 01:12:00;;;;;;;8.40;4.13;;;4.60;99.90;;;;;;4994850;28;20026;-89
2023/03/12 01:14:29;;;;;;;10.93;4.70;;;5.50;99.90;;;;;;4994948;28;20026;-90
2023/03/12 01:17:03;;;;;;;13.23;5.05;;;4.40;99.90;;;;;;4994607;28;20027;-90
2023/03/12 01:19:35;;;;;;;11.38;5.03;;;4.80;99.90;;;;;;4995017;28;20023;-89
2023/03/12 01:22:04;;;;;;;15.13;6.03;;;4.80;99.90;;;;;;4986507;28;20501;-90
2023/03/12 01:24:29;;;;;;;9.02;4.70;;;4.80;99.90;;;;;;4974312;28;20026;-89
2023/03/12 01:27:01;;;;;;;9.77;5.55;;;4.80;99.90;;;;;;4975485;28;20364;-90
2023/03/12 01:29:32;;;;;;;16.77;5.32;;;5.30;99.90;;;;;;4975252;28;20038;-89
2023/03/12 01:32:06;;;;;;;13.60;4.90;;;5.10;99.90;;;;;;4974985;28;20042;-89
2023/03/12 01:34:35;;;;;;;9.13;4.45;;;5.90;99.90;;;;;;4975331;28;20077;-90
2023/03/12 01:37:05;;;;;;;6.72;4.55;;;6.00;99.90;;;;;;4974869;28;20110;-90
2023/03/12 01:39:34;;;;;;;10.50;5.13;;;4.70;99.90;;;;;;4975369;28;20387;-89
2023/03/12 01:42:08;;;;;;;6.57;4.53;;;5.70;99.90;;;;;;4975088;28;20073;-90
2023/03/12 01:45:12;;;;;;;7.35;3.65;;;5.50;99.90;;;;;;4974491;28;20479;-90
2023/03/12 01:47:40;;;;;;;11.05;5.55;;;4.80;99.90;;;;;;4975260;28;20109;-90
2023/03/12 01:50:09;;;;;;;9.88;4.22;;;5.40;99.90;;;;;;4974280;28;20491;-91
2023/03/12 01:52:41;;;;;;;7.95;4.03;;;5.30;99.90;;;;;;4974368;28;20045;-90
2023/03/12 01:55:12;;;;;;;15.15;4.50;;;5.20;99.90;;;;;;4975314;28;20170;-90
2023/03/12 01:58:06;;;;;;;;;;;5.70;99.90;;;;;;4975312;28;20031;-90
2023/03/12 02:00:41;;;;;;;9.68;4.00;;;4.80;99.90;;;;;;4970548;28;19913;-89
2023/03/12 02:03:14;;;;;;;9.32;3.80;;;4.70;99.90;;;;;;4974774;28;20019;-89
2023/03/12 02:05:53;;;;;;;6.00;3.97;;;5.50;99.90;;;;;;4976191;28;20027;-91
2023/03/12 02:08:19;;;;;;;4.72;3.80;;;4.80;99.90;;;;;;4958382;28;20034;-90
2023/03/12 02:10:45;;;;;;;14.40;3.63;;;5.10;99.90;;;;;;4974355;28;20110;-90
2023/03/12 02:13:17;;;;;;;13.95;3.78;;;5.70;99.90;;;;;;4973986;28;20499;-90
2023/03/12 02:15:46;;;;;;;6.00;3.78;;;5.40;99.90;;;;;;4974462;28;20026;-89
2023/03/12 02:18:18;;;;;;;8.88;4.05;;;4.80;99.90;;;;;;4974917;28;20027;-89
2023/03/12 02:21:19;;;;;;;12.82;3.65;;;5.20;99.90;;;;;;4973806;28;20023;-88
2023/03/12 02:23:49;;;;;;;7.10;3.17;;;4.80;99.90;;;;;;4974451;28;20051;-89
2023/03/12 02:26:22;;;;;;;9.48;3.60;;;5.50;99.90;;;;;;4974303;28;20471;-89
2023/03/12 02:28:49;;;;;;;7.22;3.63;;;4.70;99.90;;;;;;4974705;28;20035;-88
2023/03/12 02:31:25;;;;;;;9.57;3.35;;;5.80;99.90;;;;;;4974497;28;20154;-89
2023/03/12 02:33:52;;;;;;;10.13;3.70;;;4.80;99.90;;;;;;4973691;28;20061;-89
2023/03/12 02:36:18;;;;;;;8.77;3.83;;;5.30;99.90;;;;;;4974497;28;20027;-88
2023/03/12 02:38:52;;;;;;;4.03;3.15;;;5.40;99.90;;;;;;4993587;28;20030;-88
2023/03/12 02:41:27;;;;;;;7.80;3.72;;;4.70;99.90;;;;;;5013025;28;20486;-89
2023/03/12 02:44:52;;;;;;;9.73;3.35;;;4.70;99.90;;;;;;5013766;28;20072;-89
2023/03/12 02:47:24;;;;;;;7.00;3.45;;;4.90;99.90;;;;;;4952413;29;20495;-88
2023/03/12 02:49:55;;;;;;;7.75;3.20;;;5.40;99.90;;;;;;4952728;29;20031;-90
2023/03/12 02:52:26;;;;;;;5.38;3.35;;;5.70;99.90;;;;;;4952194;29;20043;-90
2023/03/12 02:54:54;;;;;;;32.13;4.47;;;5.40;99.90;;;;;;4952393;29;20547;-90
2023/03/12 02:57:26;;;;;;;10.52;4.00;;;5.30;99.90;;;;;;4952987;29;20055;-90
2023/03/12 02:59:58;;;;;;;9.60;3.70;;;5.20;99.90;;;;;;4953698;28;20027;-89
2023/03/12 03:02:24;;;;;;;11.45;5.15;;;5.30;99.90;;;;;;4955962;29;20038;-88
2023/03/12 03:04:58;;;;;;;9.60;3.58;;;5.50;99.90;;;;;;4956652;29;20032;-88
2023/03/12 03:07:27;;;;;;;5.30;3.28;;;5.60;99.90;;;;;;4957818;29;20033;-88
2023/03/12 03:10:03;;;;;;;12.77;4.65;;;5.80;99.90;;;;;;4957632;29;20039;-90
2023/03/12 03:12:36;;;;;;;8.48;3.72;;;4.90;99.90;;;;;;4957299;29;20054;-90
2023/03/12 03:15:03;;;;;;;10.30;4.38;;;5.60;99.90;;;;;;4956527;29;20055;-90
2023/03/12 03:17:37;;;;;;;10.25;3.90;;;4.80;99.90;;;;;;4976225;28;20038;-92
2023/03/12 03:20:10;;;;;;;6.57;3.35;;;4.60;99.90;;;;;;5016804;28;20044;-90
2023/03/12 03:22:39;;;;;;;10.95;4.45;;;4.90;99.90;;;;;;5016035;28;20025;-89
2023/03/12 03:25:06;;;;;;;6.85;3.50;;;5.50;99.90;;;;;;5016978;28;20037;-92
2023/03/12 03:27:32;;;;;;;10.80;3.33;;;4.80;99.90;;;;;;5016969;28;20084;-90
2023/03/12 03:30:01;;;;;;;8.18;3.63;;;5.50;99.90;;;;;;5016055;28;20018;-90
2023/03/12 03:32:26;;;;;;;10.18;3.58;;;5.30;99.90;;;;;;5016236;28;20045;-92
2023/03/12 03:34:59;;;;;;;7.47;3.63;;;5.20;99.90;;;;;;5016847;28;20022;-91
2023/03/12 03:37:30;;;;;;;7.50;3.67;;;5.20;99.90;;;;;;5015919;28;20077;-91
2023/03/12 03:40:02;;;;;;;12.75;4.55;;;4.90;99.90;;;;;;5016850;28;20034;-90
2023/03/12 03:42:28;;;;;;;7.15;3.97;;;4.60;99.90;;;;;;5015411;28;20042;-91
2023/03/12 03:45:12;;;;;;;7.20;3.60;;;4.90;99.90;;;;;;5015845;28;20076;-89
2023/03/12 03:47:37;;;;;;;12.25;4.10;;;5.20;99.90;;;;;;5016452;28;20034;-91
2023/03/12 03:50:04;;;;;;;5.32;3.35;;;5.30;99.90;;;;;;5016367;28;20450;-91
2023/03/12 03:52:32;;;;;;;8.98;4.15;;;4.40;99.90;;;;;;5015345;28;20033;-91
2023/03/12 03:57:29;;;;;;;9.15;3.40;;;4.50;99.90;;;;;;5000027;23;20100;-91
2023/03/12 04:02:31;;;;;;;9.13;4.70;;;4.50;99.90;;;;;;5012998;23;20073;-89
2023/03/12 04:05:01;;;;;;;8.15;4.10;;;4.30;99.90;;;;;;5002466;23;20077;-90
2023/03/12 04:07:30;;;;;;;10.27;3.63;;;5.00;99.90;;;;;;5002202;23;20050;-90
2023/03/12 04:10:05;;;;;;;5.93;3.60;;;4.30;99.90;;;;;;5053994;23;20506;-89
2023/03/12 04:12:30;;;;;;;9.65;3.63;;;4.50;99.90;;;;;;5015305;28;20044;-89
2023/03/12 04:15:02;;;;;;;7.60;3.50;;;5.10;99.90;;;;;;5007170;23;20051;-89
2023/03/12 04:17:28;;;;;;;7.20;4.15;;;4.40;99.90;;;;;;4996257;28;20065;-89
2023/03/12 04:19:53;;;;;;;5.22;3.17;;;4.50;99.90;;;;;;4987447;28;20046;-90
2023/03/12 04:22:19;;;;;;;16.13;4.57;;;5.00;99.90;;;;;;4996050;28;20160;-89
2023/03/12 04:24:47;;;;;;;8.02;3.63;;;5.20;99.90;;;;;;4995941;28;20026;-89
2023/03/12 04:27:19;;;;;;;10.70;3.78;;;5.10;99.90;;;;;;4997557;28;20109;-90
2023/03/12 04:29:44;;;;;;;5.95;3.20;;;4.50;99.90;;;;;;4996509;28;20034;-90
2023/03/12 04:32:16;;;;;;;13.20;4.05;;;5.10;99.90;;;;;;4997992;28;20038;-90
2023/03/12 04:34:51;;;;;;;9.82;4.20;;;5.20;99.90;;;;;;4994784;28;20050;-90
2023/03/12 04:37:16;;;;;;;8.20;3.75;;;5.00;99.90;;;;;;4995708;28;20030;-88
2023/03/12 04:39:47;;;;;;;7.20;3.63;;;5.30;99.90;;;;;;4994910;28;20029;-89
2023/03/12 04:42:27;;;;;;;15.18;4.15;;;5.40;99.90;;;;;;4995775;28;20049;-89
2023/03/12 04:44:53;;;;;;;5.10;4.07;;;5.30;99.90;;;;;;4995833;28;20084;-89
2023/03/12 04:47:21;;;;;;;8.27;3.78;;;4.50;99.90;;;;;;4995159;28;20463;-90
2023/03/12 04:49:50;;;;;;;6.97;3.63;;;5.20;99.90;;;;;;4995525;28;20030;-89
2023/03/12 04:52:25;;;;;;;14.27;4.43;;;5.40;99.90;;;;;;4995558;28;20181;-89
2023/03/12 04:54:54;;;;;;;10.10;4.22;;;5.40;99.90;;;;;;4994935;28;20049;-90
2023/03/12 04:57:22;;;;;;;11.52;4.85;;;4.80;99.90;;;;;;4995453;28;20029;-89
2023/03/12 04:59:54;;;;;;;9.27;4.15;;;5.20;99.90;;;;;;4995306;28;20065;-89
2023/03/12 05:02:23;;;;;;;12.80;4.82;;;4.60;99.90;;;;;;4994906;28;20355;-90
2023/03/12 05:04:55;;;;;;;11.18;5.38;;;5.10;99.90;;;;;;4995150;28;20489;-90
2023/03/12 05:07:23;;;;;;;9.00;4.47;;;5.20;99.90;;;;;;4995349;28;20018;-89
2023/03/12 05:09:58;;;;;;;14.43;5.05;;;5.10;99.90;;;;;;4994540;28;20037;-90
2023/03/12 05:12:29;;;;;;;9.63;4.65;;;4.30;99.90;;;;;;4997670;28;20041;-88
2023/03/12 05:15:01;;;;;;;11.70;4.60;;;4.30;99.90;;;;;;4995577;28;20043;-89
2023/03/12 05:17:26;;;;;;;9.90;5.20;;;5.10;99.90;;;;;;4995126;28;20026;-89
2023/03/12 05:20:03;;;;;;;10.52;4.80;;;5.10;99.90;;;;;;4994853;28;20030;-90
2023/03/12 05:22:29;;;;;;;15.63;5.90;;;4.40;99.90;;;;;;4994407;28;20030;-89
2023/03/12 05:25:02;;;;;;;11.63;4.90;;;5.10;99.90;;;;;;4995027;28;20427;-88
2023/03/12 05:27:34;;;;;;;13.85;5.40;;;4.30;99.90;;;;;;4995000;28;20041;-89
2023/03/12 05:30:04;;;;;;;12.02;5.63;;;5.20;99.90;;;;;;4993715;28;20018;-88
2023/03/12 05:32:30;;;;;;;15.82;5.50;;;4.50;99.90;;;;;;4994587;28;20116;-88
2023/03/12 05:35:05;;;;;;;9.70;5.60;;;5.30;99.90;;;;;;4994900;28;20034;-88
2023/03/12 05:37:37;;;;;;;9.63;5.15;;;4.50;99.90;;;;;;4993915;28;20058;-91
2023/03/12 05:40:06;;;;;;;12.15;5.43;;;5.00;99.90;;;;;;4994885;28;20360;-88
2023/03/12 05:42:32;;;;;;;9.98;5.88;;;4.50;99.90;;;;;;4994341;28;20018;-88
2023/03/12 05:45:00;;;;;;;9.60;5.43;;;4.30;99.90;;;;;;4994141;28;20037;-90
2023/03/12 05:47:28;;;;;;;12.60;6.07;;;4.50;99.90;;;;;;4994376;28;20034;-88
2023/03/12 05:50:03;;;;;;;12.45;5.82;;;5.20;99.90;;;;;;4994343;28;20476;-88
2023/03/12 05:52:35;;;;;;;11.93;5.13;;;4.50;99.90;;;;;;4994282;28;20042;-90
2023/03/12 05:55:04;;;;;;;11.80;5.18;;;5.50;99.90;;;;;;4994672;28;20026;-90
2023/03/12 05:57:32;;;;;;;9.50;5.05;;;4.60;99.90;;;;;;4993700;28;20029;-90
2023/03/12 06:00:07;;;;;;;13.38;6.07;;;5.20;99.90;;;;;;4994382;28;20117;-90
2023/03/12 06:02:32;;;;;;;8.45;5.03;;;4.60;99.90;;;;;;4994392;28;20026;-90
2023/03/12 06:05:01;;;;;;;8.20;5.80;;;5.20;99.90;;;;;;4993690;28;20521;-90
2023/03/12 06:10:02;;;;;;;9.10;5.18;;;4.60;99.90;;;;;;5021768;23;20688;-90
2023/03/12 06:12:31;;;;;;;10.35;5.90;;;4.60;99.90;;;;;;4994162;28;20045;-90
2023/03/12 06:15:03;;;;;;;10.20;5.85;;;4.40;99.90;;;;;;5014647;28;20026;-90
2023/03/12 06:17:31;;;;;;;14.57;6.78;;;4.50;99.90;;;;;;5014175;28;20037;-90
2023/03/12 06:20:00;;;;;;;13.65;6.28;;;5.00;99.90;;;;;;5012905;28;20022;-90
2023/03/12 06:22:28;;;;;;;12.18;6.70;;;4.90;99.90;;;;;;5013568;28;20030;-90
2023/03/12 06:25:04;;;;;;;11.77;6.53;;;5.00;99.90;;;;;;5013371;28;20026;-90
2023/03/12 06:27:30;;;;;;;10.32;5.93;;;4.40;99.90;;;;;;5012372;28;20049;-89
2023/03/12 06:29:56;;;;;;;14.88;7.43;;;5.30;99.90;;;;;;5013880;28;20351;-90
2023/03/12 06:32:26;;;;;;;8.38;6.65;;;5.10;99.90;;;;;;4993936;28;20037;-90
2023/03/12 06:34:52;;;;;;;12.48;6.90;;;4.40;99.90;;;;;;4993505;28;20053;-91
2023/03/12 06:37:23;;;;;;;6.72;5.65;;;4.50;99.90;;;;;;4993762;28;20053;-91
2023/03/12 06:39:58;;;;;;;12.02;6.35;;;4.40;99.90;;;;;;4993104;28;20034;-90
2023/03/12 06:42:25;;;;;;;12.25;6.43;;;5.30;99.90;;;;;;4993738;28;20027;-90
2023/03/12 06:44:53;;;;;;;16.00;6.18;;;5.50;99.90;;;;;;4996279;28;20030;-89
2023/03/12 06:47:24;;;;;;;11.88;6.55;;;5.40;99.90;;;;;;5002925;28;20471;-88
2023/03/12 06:49:53;;;;;;;14.45;7.05;;;5.30;99.90;;;;;;5004737;28;20034;-90
2023/03/12 06:52:28;;;;;;;10.70;6.97;;;4.90;99.90;;;;;;5012147;28;20041;-89
2023/03/12 06:54:59;;;;;;;10.23;7.22;;;5.40;99.90;;;;;;5011655;28;20114;-89
2023/03/12 06:57:31;;;;;;;10.82;6.97;;;5.30;99.90;;;;;;5011700;28;20033;-89
2023/03/12 06:59:59;;;;;;;9.27;7.43;;;5.60;99.90;;;;;;5003423;28;20049;-89
2023/03/12 07:02:28;;;;;;;18.88;8.15;;;4.50;99.90;;;;;;5001291;28;20029;-89
2023/03/12 07:04:56;;;;;;;11.40;7.60;;;5.30;99.90;;;;;;5003401;28;20022;-88
2023/03/12 07:07:25;;;;;;;15.65;8.07;;;4.80;99.90;;;;;;5002437;28;20029;-89
2023/03/12 07:09:58;;;;;;;15.27;8.63;;;5.30;99.90;;;;;;5001379;28;20018;-88
2023/03/12 07:12:29;;;;;;;13.23;8.60;;;5.10;99.90;;;;;;5006093;28;20030;-89
2023/03/12 07:14:55;;;;;;;15.55;9.02;;;5.00;99.90;;;;;;5010819;28;20485;-90
2023/03/12 07:17:25;;;;;;;13.05;9.60;;;5.20;99.90;;;;;;5011326;28;20058;-89
2023/03/12 07:19:53;;;;;;;14.03;8.80;;;4.90;99.90;;;;;;5009483;28;20070;-88
2023/03/12 07:22:22;;;;;;;20.70;11.07;;;4.90;99.90;;;;;;5010976;28;20022;-89
2023/03/12 07:24:53;;;;;;;16.40;9.35;;;5.20;99.90;;;;;;5008985;28;20026;-90
2023/03/12 07:27:22;;;;;;;11.45;8.55;;;5.40;99.90;;;;;;5011463;28;20170;-89
2023/03/12 07:29:57;;;;;;;17.42;10.13;;;5.50;99.90;;;;;;5008458;28;20022;-89
2023/03/12 07:32:25;;;;;;;15.68;9.75;;;5.40;99.90;;;;;;5008349;28;20426;-88
2023/03/12 07:34:54;;;;;;;15.75;10.05;;;5.30;99.90;;;;;;5004155;28;20116;-89
2023/03/12 07:37:26;;;;;;;12.32;9.20;;;5.80;99.90;;;;;;5004006;28;20029;-89
2023/03/12 07:40:00;;;;;;;14.52;9.20;;;5.30;99.90;;;;;;5002036;28;20097;-89
2023/03/12 07:42:26;;;;;;;13.48;9.95;;;5.70;99.90;;;;;;5000358;28;20033;-89
2023/03/12 07:45:01;;;;;;;18.88;11.05;;;5.50;99.90;;;;;;5001570;28;20027;-89
2023/03/12 07:47:28;;;;;;;13.85;11.02;;;5.70;99.90;;;;;;5002136;28;20040;-89
2023/03/12 07:50:02;;;;;;;20.90;11.15;;;5.70;99.90;;;;;;5008384;28;20346;-91
2023/03/12 07:52:28;;;;;;;15.15;10.63;;;4.90;99.90;;;;;;5025317;28;20040;-90
2023/03/12 07:55:06;;;;;;;13.90;10.27;;;5.40;99.90;;;;;;5020883;28;20021;-89
2023/03/12 07:57:35;;;;;;;14.48;11.52;;;4.90;99.90;;;;;;5042163;23;20078;-89
2023/03/12 08:00:06;;;;;;;16.55;11.52;;;6.00;99.90;;;;;;4994747;28;20027;-90
2023/03/12 08:02:33;;;;;;;19.85;12.55;;;4.90;99.90;;;;;;4999395;23;20054;-89
2023/03/12 08:04:59;;;;;;;25.45;12.93;;;6.10;99.90;;;;;;4996026;23;20039;-88
2023/03/12 08:10:28;;;;;;;18.40;13.02;;;5.00;99.90;;;;;;5038825;23;20438;-88
2023/03/12 08:12:56;;;;;;;24.63;13.63;;;5.30;99.90;;;;;;4999276;23;20046;-90
2023/03/12 08:15:24;;;;;;;24.17;14.30;;;5.00;99.90;;;;;;4994067;28;20022;-88
2023/03/12 08:17:53;;;;;;;21.45;13.77;;;5.50;99.90;;;;;;4993632;28;20379;-89
2023/03/12 08:20:21;;;;;;;31.80;16.65;;;6.00;99.90;;;;;;4994244;28;20022;-89
2023/03/12 08:22:56;;;;;;;25.35;16.77;;;5.80;99.90;;;;;;4993480;28;20378;-89
2023/03/12 08:25:23;;;;;;;32.22;15.75;;;4.90;99.90;;;;;;4993782;28;20474;-90
2023/03/12 08:27:49;;;;;;;25.52;18.55;;;5.90;99.90;;;;;;4993987;28;20041;-89
2023/03/12 08:30:18;;;;;;;25.92;17.15;;;5.70;99.90;;;;;;4994337;28;20031;-89
2023/03/12 08:32:52;;;;;;;30.85;17.90;;;5.20;99.90;;;;;;4993074;28;20043;-90
2023/03/12 08:35:20;;;;;;;30.05;20.80;;;5.40;99.90;;;;;;4994079;28;20106;-89
2023/03/12 08:37:51;;;;;;;38.10;23.65;;;5.80;99.90;;;;;;4994061;28;20046;-90
2023/03/12 08:40:17;;;;;;;41.08;24.35;;;5.90;99.90;;;;;;4993625;28;20470;-89
2023/03/12 08:42:46;;;;;;;46.22;26.65;;;5.30;99.90;;;;;;4993428;28;20034;-89
2023/03/12 08:45:20;;;;;;;39.45;24.55;;;6.00;99.90;;;;;;4989744;28;20023;-89
2023/03/12 08:47:49;;;;;;;38.47;24.58;;;6.40;99.90;;;;;;4993570;28;20061;-90
2023/03/12 08:50:15;;;;;;;44.40;26.25;;;6.00;99.90;;;;;;4994167;28;20109;-90
2023/03/12 08:52:46;;;;;;;51.08;26.75;;;6.10;99.90;;;;;;4993289;28;20042;-88
2023/03/12 08:55:12;;;;;;;53.53;29.88;;;6.10;99.90;;;;;;4999100;23;20071;-89
2023/03/12 16:37:02;;;;;;;72.85;10.75;;;10.00;99.90;;;;;;6007575;23;20035;-88
2023/03/12 17:16:17;;;;;;;46.80;6.30;;;9.80;99.90;;;;;;4942324;28;20058;-90
2023/03/12 17:18:50;;;;;;;29.85;5.63;;;11.10;99.90;;;;;;4971981;23;20438;-90
2023/03/12 17:21:19;;;;;;;31.67;5.15;;;10.00;99.90;;;;;;4998146;23;20096;-88
2023/03/12 17:23:47;;;;;;;40.72;6.93;;;9.60;99.90;;;;;;5266385;23;20878;-87
2023/03/12 17:35:05;;;;;;;;;;;;;;;;;;;;;
2023/03/12 17:41:15;;;;;;;;;;;;;;;;;;;;;
2023/03/12 17:44:06;;;;;;;16.75;3.17;;;9.70;99.90;;;;;;4889739;29;20491;-90
2023/03/12 17:46:38;;;;;;;13.48;2.92;;;9.10;99.90;;;;;;4953822;28;20023;-90
2023/03/12 17:52:43;;;;;;;13.02;2.78;;;9.70;99.90;;;;;;4908112;29;20098;-91
2023/03/12 17:55:54;;;;;;;;;;;;;;;;;;;;;
2023/03/12 18:09:22;;;;;;;13.65;2.67;;;9.70;99.90;;;;;;5393936;23;20061;-90
2023/03/12 18:11:53;;;;;;;24.83;3.13;;;9.70;99.90;;;;;;4948665;23;20043;-90
2023/03/12 18:14:21;;;;;;;12.50;2.30;;;10.50;99.90;;;;;;4970027;28;20038;-91
2023/03/12 18:16:49;;;;;;;11.15;2.47;;;10.60;99.90;;;;;;4969631;28;20023;-90
2023/03/12 18:19:15;;;;;;;11.02;2.33;;;10.60;99.90;;;;;;4971927;28;20131;-89
2023/03/12 18:21:44;;;;;;;14.48;2.85;;;10.30;99.90;;;;;;4970489;28;20105;-89
2023/03/12 18:24:12;;;;;;;18.67;2.90;;;10.50;99.90;;;;;;4969340;28;20035;-90
2023/03/12 18:26:39;;;;;;;21.08;3.80;;;10.20;99.90;;;;;;4971215;28;20046;-89
2023/03/12 18:29:08;;;;;;;16.98;3.80;;;10.90;99.90;;;;;;4982522;28;20038;-89
2023/03/12 18:33:59;;;;;;;14.65;2.83;;;9.80;99.90;;;;;;4986676;23;20063;-87
2023/03/12 18:36:47;;;;;;;;;;;;;;;;;;;;;
2023/03/12 18:42:03;;;;;;;20.35;3.47;;;9.70;99.90;;;;;;5126601;23;20085;-88
2023/03/12 18:47:04;;;;;;;16.02;2.17;;;9.70;99.90;;;;;;4966659;23;19922;-89
2023/03/12 18:49:34;;;;;;;22.20;3.15;;;9.70;99.90;;;;;;5006905;23;20039;-88
2023/03/12 18:52:05;;;;;;;27.90;4.53;;;9.70;99.90;;;;;;4990691;28;20034;-87
2023/03/12 18:55:04;;;;;;;21.10;3.70;;;9.80;99.90;;;;;;4981384;23;20105;-87
2023/03/12 19:01:09;;;;;;;22.90;4.60;;;9.80;99.90;;;;;;5033390;23;20048;-87
2023/03/12 19:03:39;;;;;;;25.63;3.80;;;9.70;99.90;;;;;;4949442;23;20067;-88
2023/03/12 19:06:07;;;;;;;19.90;4.22;;;10.20;99.90;;;;;;4963789;28;20047;-88
2023/03/12 19:11:06;;;;;;;33.70;4.45;;;9.90;99.90;;;;;;4977315;23;20197;-88
2023/03/12 19:16:21;;;;;;;;;;;;;;;;;;;;;
2023/03/12 19:19:13;;;;;;;30.48;5.47;;;10.80;99.90;;;;;;4958727;23;20048;-88
2023/03/12 19:26:42;;;;;;;27.10;4.97;;;9.80;99.90;;;;;;5182466;23;20129;-90
2023/03/12 19:29:10;;;;;;;30.23;5.72;;;10.40;99.90;;;;;;4986880;23;20113;-90
2023/03/12 19:44:16;;;;;;;26.63;5.20;;;9.70;99.90;;;;;;5009303;23;20153;-89
2023/03/12 19:46:46;;;;;;;22.42;5.10;;;10.50;99.90;;;;;;4977250;23;20510;-89
2023/03/12 19:49:27;;;;;;;;;;;;;;;;;;;;;
2023/03/12 19:52:14;;;;;;;30.80;5.80;;;10.20;99.90;;;;;;4907869;29;20277;-90
2023/03/12 19:54:55;;;;;;;;;;;;;;;;;;;;;
2023/03/12 19:57:45;;;;;;;22.52;4.50;;;9.70;99.90;;;;;;4841075;29;20527;-90
2023/03/12 20:04:06;;;;;;;25.38;4.50;;;9.20;99.90;;;;;;4807039;29;20148;-90
2023/03/12 20:06:35;;;;;;;37.90;6.53;;;9.70;99.90;;;;;;4841389;29;20046;-90
2023/03/12 20:09:04;;;;;;;31.30;5.30;;;10.40;99.90;;;;;;4834777;29;20033;-90
2023/03/12 20:11:32;;;;;;;38.10;6.18;;;10.40;99.90;;;;;;4836402;29;20056;-89
2023/03/12 20:16:29;;;;;;;35.10;6.60;;;9.60;99.90;;;;;;5156441;23;20133;-88
2023/03/12 20:18:58;;;;;;;37.28;6.40;;;9.30;99.90;;;;;;5192255;23;20059;-90
2023/03/12 20:26:26;;;;;;;37.03;5.55;;;9.60;99.90;;;;;;5027214;23;20050;-87
2023/03/12 20:29:07;;;;;;;;;;;;;;;;;;;;;
2023/03/12 20:31:50;;;;;;;42.53;8.07;;;9.80;99.90;;;;;;4928080;28;20046;-87
2023/03/12 20:34:22;;;;;;;28.80;5.35;;;10.50;99.90;;;;;;4976789;28;20031;-89
2023/03/12 20:36:52;;;;;;;36.55;5.95;;;10.20;99.90;;;;;;4971263;28;20542;-88
2023/03/12 20:39:18;;;;;;;39.08;5.90;;;10.00;99.90;;;;;;4965030;28;20410;-88
2023/03/12 20:42:16;;;;;;;34.90;6.05;;;10.10;99.90;;;;;;4974597;28;20038;-87
2023/03/12 20:48:16;;;;;;;23.50;4.97;;;9.10;99.90;;;;;;4973250;28;20034;-88
2023/03/12 20:50:44;;;;;;;33.25;5.88;;;9.10;99.90;;;;;;4974001;28;20023;-89
2023/03/12 20:53:51;;;;;;;37.50;6.57;;;10.30;99.90;;;;;;4975028;28;20030;-90
2023/03/12 20:57:25;;;;;;;;;;;;;;;;;;;;;
2023/03/12 21:00:14;;;;;;;27.92;5.20;;;9.50;99.90;;;;;;4883678;29;20028;-90
2023/03/12 21:02:43;;;;;;;37.47;6.53;;;9.40;99.90;;;;;;4966585;23;20102;-89
2023/03/12 21:05:24;;;;;;;;;;;;;;;;;;;;;
2023/03/12 21:07:51;;;;;;;31.27;4.85;;;8.90;99.90;;;;;;4937271;23;20047;-90
2023/03/12 21:10:20;;;;;;;29.13;6.40;;;10.00;99.90;;;;;;4956927;28;20034;-88
2023/03/12 21:12:51;;;;;;;42.47;6.90;;;9.50;99.90;;;;;;4954414;23;20134;-88
2023/03/12 21:18:27;;;;;;;41.25;6.88;;;9.40;99.90;;;;;;5092845;23;20565;-88
2023/03/12 21:21:02;;;;;;;42.97;5.78;;;9.70;99.90;;;;;;4952970;28;20043;-87
2023/03/12 21:23:31;;;;;;;45.15;6.20;;;9.80;99.90;;;;;;4954626;28;20062;-88
2023/03/12 21:28:54;;;;;;;39.83;7.22;;;9.40;99.90;;;;;;4955424;28;20054;-88
2023/03/12 21:31:20;;;;;;;38.15;6.50;;;10.40;99.90;;;;;;4956848;28;20023;-86
2023/03/12 21:33:52;;;;;;;37.83;7.13;;;10.30;99.90;;;;;;4953765;29;20090;-87
2023/03/12 21:36:21;;;;;;;39.92;6.80;;;10.20;99.90;;;;;;4954743;28;20023;-89
2023/03/12 21:38:51;;;;;;;36.22;5.38;;;10.20;99.90;;;;;;4952728;28;20174;-87
2023/03/12 21:41:21;;;;;;;44.00;8.18;;;9.00;99.90;;;;;;4952148;28;20066;-88
2023/03/12 21:43:49;;;;;;;50.50;7.70;;;10.70;99.90;;;;;;4970399;23;20133;-88
2023/03/12 21:48:52;;;;;;;47.38;7.95;;;9.50;99.90;;;;;;4980749;23;20145;-89
2023/03/12 21:53:53;;;;;;;44.72;7.22;;;9.40;99.90;;;;;;5004744;23;20077;-88
2023/03/12 22:16:25;;;;;;;35.75;6.90;;;9.40;99.90;;;;;;4948431;23;20054;-88
2023/03/12 22:29:10;;;;;;;44.97;6.65;;;9.40;99.90;;;;;;3098330;26;20460;-88
2023/03/12 22:31:39;;;;;;;41.22;7.13;;;10.20;99.90;;;;;;4951307;29;20467;-88
2023/03/12 22:40:29;;;;;;;44.35;6.97;;;9.40;99.90;;;;;;4991999;23;20050;-88
2023/03/12 22:42:57;;;;;;;33.65;7.30;;;10.00;99.90;;;;;;4982600;23;20383;-88
2023/03/12 22:45:33;;;;;;;44.05;7.55;;;10.40;99.90;;;;;;4968621;23;20078;-88
2023/03/12 22:48:08;;;;;;;43.30;8.75;;;9.90;99.90;;;;;;4953968;29;20031;-88
2023/03/12 22:50:36;;;;;;;45.90;7.07;;;10.00;99.90;;;;;;4951841;29;20027;-88
2023/03/12 22:53:05;;;;;;;40.42;6.88;;;10.10;99.90;;;;;;4958726;23;20113;-88
2023/03/12 22:58:05;;;;;;;40.45;6.70;;;9.40;99.90;;;;;;4983657;23;20480;-88
2023/03/12 23:03:02;;;;;;;38.13;6.95;;;9.40;99.90;;;;;;4979531;23;20070;-88
2023/03/12 23:05:33;;;;;;;30.63;6.03;;;9.80;99.90;;;;;;4952905;29;20435;-88
2023/03/12 23:08:02;;;;;;;33.95;6.43;;;9.40;99.90;;;;;;4954060;29;20055;-88
2023/03/12 23:14:04;;;;;;;49.97;7.95;;;9.40;99.90;;;;;;4986347;23;20052;-88
2023/03/12 23:17:32;;;;;;;42.75;7.25;;;9.40;99.90;;;;;;4969417;23;20055;-89
2023/03/12 23:24:07;;;;;;;25.10;5.35;;;9.10;99.90;;;;;;4986955;23;20142;-87
2023/03/12 23:26:35;;;;;;;33.13;6.45;;;9.10;99.90;;;;;;4963196;23;20051;-88
2023/03/12 23:29:03;;;;;;;35.08;6.72;;;9.90;99.90;;;;;;4957988;29;20042;-87
2023/03/12 23:31:31;;;;;;;41.40;6.43;;;9.90;99.90;;;;;;4957507;29;20031;-88
2023/03/12 23:34:00;;;;;;;43.35;7.30;;;10.20;99.90;;;;;;4957056;29;20067;-87
2023/03/12 23:36:31;;;;;;;25.92;6.38;;;9.40;99.90;;;;;;4957334;29;20027;-87
2023/03/12 23:38:57;;;;;;;37.42;7.13;;;10.20;99.90;;;;;;4957702;29;20031;-88
2023/03/12 23:41:30;;;;;;;39.50;8.02;;;10.30;99.90;;;;;;4956985;29;20019;-87
2023/03/12 23:43:59;;;;;;;30.23;5.47;;;10.30;99.90;;;;;;4957739;29;20023;-87
2023/03/12 23:46:30;;;;;;;44.25;6.60;;;10.10;99.90;;;;;;4956768;29;20458;-87
2023/03/12 23:48:59;;;;;;;39.65;6.18;;;10.40;99.90;;;;;;4957690;29;20035;-87
2023/03/12 23:51:30;;;;;;;25.42;5.65;;;10.20;99.90;;;;;;4957636;29;20118;-88
2023/03/12 23:54:04;;;;;;;23.08;5.88;;;9.20;99.90;;;;;;4956750;29;20483;-88
2023/03/12 23:56:37;;;;;;;31.17;6.18;;;10.20;99.90;;;;;;4957458;29;20033;-88
2023/03/12 23:59:09;;;;;;;26.77;5.20;;;10.40;99.90;;;;;;4957201;29;20042;-87
